sensor_id;sensor_type;location;lat;lon;timestamp;temperature;humidity
49717;DHT22;35609;53.166;7.610;2023-03-14T00:00:04;9.30;99.90
49717;DHT22;35609;53.166;7.610;2023-03-14T00:02:31;9.30;99.90
49717;DHT22;35609;53.166;7.610;2023-03-14T00:04:56;9.40;99.90
49717;DHT22;35609;53.166;7.610;2023-03-14T00:07:22;9.40;99.90
49717;DHT22;35609;53.166;7.610;2023-03-14T00:09:50;9.20;99.90
49717;DHT22;35609;53.166;7.610;2023-03-14T00:12:16;9.40;99.90
49717;DHT22;35609;53.166;7.610;2023-03-14T00:14:41;9.40;99.90
49717;DHT22;35609;53.166;7.610;2023-03-14T00:17:09;9.40;99.90
49717;DHT22;35609;53.166;7.610;2023-03-14T00:19:34;9.40;99.90
49717;DHT22;35609;53.166;7.610;2023-03-14T00:22:00;9.40;99.90
49717;DHT22;35609;53.166;7.610;2023-03-14T00:24:26;9.60;99.90
49717;DHT22;35609;53.166;7.610;2023-03-14T00:26:51;9.70;99.90
49717;DHT22;35609;53.166;7.610;2023-03-14T00:29:17;9.60;99.90
49717;DHT22;35609;53.166;7.610;2023-03-14T00:31:43;9.70;99.90
49717;DHT22;35609;53.166;7.610;2023-03-14T00:34:08;9.70;99.90
49717;DHT22;35609;53.166;7.610;2023-03-14T00:36:34;9.70;99.90
49717;DHT22;35609;53.166;7.610;2023-03-14T00:39:00;9.80;99.90
49717;DHT22;35609;53.166;7.610;2023-03-14T00:41:25;9.80;99.90
49717;DHT22;35609;53.166;7.610;2023-03-14T00:43:51;9.90;99.90
49717;DHT22;35609;53.166;7.610;2023-03-14T00:46:17;9.90;99.90
49717;DHT22;35609;53.166;7.610;2023-03-14T00:48:46;9.90;99.90
49717;DHT22;35609;53.166;7.610;2023-03-14T00:51:13;10.00;99.90
49717;DHT22;35609;53.166;7.610;2023-03-14T00:53:41;10.00;99.90
49717;DHT22;35609;53.166;7.610;2023-03-14T00:56:08;10.10;99.90
49717;DHT22;35609;53.166;7.610;2023-03-14T00:58:35;10.10;99.90
49717;DHT22;35609;53.166;7.610;2023-03-14T01:01:09;10.20;99.90
49717;DHT22;35609;53.166;7.610;2023-03-14T01:03:35;10.20;99.90
49717;DHT22;35609;53.166;7.610;2023-03-14T01:06:16;10.20;99.90
49717;DHT22;35609;53.166;7.610;2023-03-14T01:08:42;10.30;99.90
49717;DHT22;35609;53.166;7.610;2023-03-14T01:11:11;10.40;99.90
49717;DHT22;35609;53.166;7.610;2023-03-14T01:13:38;10.40;99.90
49717;DHT22;35609;53.166;7.610;2023-03-14T01:16:06;10.30;99.90
49717;DHT22;35609;53.166;7.610;2023-03-14T01:18:33;10.50;99.90
49717;DHT22;35609;53.166;7.610;2023-03-14T01:21:01;10.40;99.90
49717;DHT22;35609;53.166;7.610;2023-03-14T01:23:27;10.40;99.90
49717;DHT22;35609;53.166;7.610;2023-03-14T01:25:53;10.20;99.90
49717;DHT22;35609;53.166;7.610;2023-03-14T01:28:18;10.20;99.90
49717;DHT22;35609;53.166;7.610;2023-03-14T01:30:44;10.20;99.90
49717;DHT22;35609;53.166;7.610;2023-03-14T01:33:10;9.90;99.90
49717;DHT22;35609;53.166;7.610;2023-03-14T01:35:36;9.80;99.90
49717;DHT22;35609;53.166;7.610;2023-03-14T01:38:02;9.90;99.90
49717;DHT22;35609;53.166;7.610;2023-03-14T01:40:28;9.90;99.90
49717;DHT22;35609;53.166;7.610;2023-03-14T01:42:58;9.70;99.90
49717;DHT22;35609;53.166;7.610;2023-03-14T01:46:43;9.80;99.90
49717;DHT22;35609;53.166;7.610;2023-03-14T01:48:42;9.70;99.90
49717;DHT22;35609;53.166;7.610;2023-03-14T01:51:40;9.80;99.90
49717;DHT22;35609;53.166;7.610;2023-03-14T01:54:07;9.80;99.90
49717;DHT22;35609;53.166;7.610;2023-03-14T01:56:35;9.70;99.90
49717;DHT22;35609;53.166;7.610;2023-03-14T01:59:03;9.80;99.90
49717;DHT22;35609;53.166;7.610;2023-03-14T02:01:30;9.70;99.90
49717;DHT22;35609;53.166;7.610;2023-03-14T02:03:59;9.80;99.90
49717;DHT22;35609;53.166;7.610;2023-03-14T02:06:32;9.60;99.90
49717;DHT22;35609;53.166;7.610;2023-03-14T02:09:00;9.60;99.90
49717;DHT22;35609;53.166;7.610;2023-03-14T02:11:28;9.50;99.90
49717;DHT22;35609;53.166;7.610;2023-03-14T02:13:56;9.20;99.90
49717;DHT22;35609;53.166;7.610;2023-03-14T02:16:23;9.10;99.90
49717;DHT22;35609;53.166;7.610;2023-03-14T02:18:49;9.00;99.90
49717;DHT22;35609;53.166;7.610;2023-03-14T02:21:26;8.90;99.90
49717;DHT22;35609;53.166;7.610;2023-03-14T02:24:42;8.80;99.90
49717;DHT22;35609;53.166;7.610;2023-03-14T02:29:37;8.80;99.90
49717;DHT22;35609;53.166;7.610;2023-03-14T02:32:06;8.80;99.90
49717;DHT22;35609;53.166;7.610;2023-03-14T02:34:32;8.70;99.90
49717;DHT22;35609;53.166;7.610;2023-03-14T02:36:58;8.80;99.90
49717;DHT22;35609;53.166;7.610;2023-03-14T02:39:39;8.70;99.90
49717;DHT22;35609;53.166;7.610;2023-03-14T02:42:05;8.70;99.90
49717;DHT22;35609;53.166;7.610;2023-03-14T02:44:31;8.70;99.90
49717;DHT22;35609;53.166;7.610;2023-03-14T02:46:57;8.80;99.90
49717;DHT22;35609;53.166;7.610;2023-03-14T02:49:23;8.80;99.90
49717;DHT22;35609;53.166;7.610;2023-03-14T02:51:52;8.90;99.90
49717;DHT22;35609;53.166;7.610;2023-03-14T02:54:19;8.80;99.90
49717;DHT22;35609;53.166;7.610;2023-03-14T02:56:45;8.70;99.90
49717;DHT22;35609;53.166;7.610;2023-03-14T02:59:13;8.70;99.90
49717;DHT22;35609;53.166;7.610;2023-03-14T03:01:39;8.80;99.90
49717;DHT22;35609;53.166;7.610;2023-03-14T03:04:05;8.80;99.90
49717;DHT22;35609;53.166;7.610;2023-03-14T03:06:31;8.90;99.90
49717;DHT22;35609;53.166;7.610;2023-03-14T03:08:56;8.80;99.90
49717;DHT22;35609;53.166;7.610;2023-03-14T03:11:22;8.90;99.90
49717;DHT22;35609;53.166;7.610;2023-03-14T03:13:47;8.80;99.90
49717;DHT22;35609;53.166;7.610;2023-03-14T03:16:13;8.70;99.90
49717;DHT22;35609;53.166;7.610;2023-03-14T03:18:40;8.90;99.90
49717;DHT22;35609;53.166;7.610;2023-03-14T03:21:06;9.00;99.90
49717;DHT22;35609;53.166;7.610;2023-03-14T03:23:34;8.90;99.90
49717;DHT22;35609;53.166;7.610;2023-03-14T03:25:59;8.90;99.90
49717;DHT22;35609;53.166;7.610;2023-03-14T03:28:25;8.90;99.90
49717;DHT22;35609;53.166;7.610;2023-03-14T03:30:51;9.00;99.90
49717;DHT22;35609;53.166;7.610;2023-03-14T03:33:17;9.00;99.90
49717;DHT22;35609;53.166;7.610;2023-03-14T03:35:47;9.00;99.90
49717;DHT22;35609;53.166;7.610;2023-03-14T03:38:14;9.10;99.90
49717;DHT22;35609;53.166;7.610;2023-03-14T03:40:40;9.00;99.90
49717;DHT22;35609;53.166;7.610;2023-03-14T03:43:06;8.90;99.90
49717;DHT22;35609;53.166;7.610;2023-03-14T03:45:31;9.00;99.90
49717;DHT22;35609;53.166;7.610;2023-03-14T03:47:57;9.10;99.90
49717;DHT22;35609;53.166;7.610;2023-03-14T03:50:23;9.00;99.90
49717;DHT22;35609;53.166;7.610;2023-03-14T03:52:48;9.10;99.90
49717;DHT22;35609;53.166;7.610;2023-03-14T03:55:14;9.00;99.90
49717;DHT22;35609;53.166;7.610;2023-03-14T03:57:40;9.10;99.90
49717;DHT22;35609;53.166;7.610;2023-03-14T04:00:06;9.00;99.90
49717;DHT22;35609;53.166;7.610;2023-03-14T04:02:34;8.90;99.90
49717;DHT22;35609;53.166;7.610;2023-03-14T04:05:00;9.10;99.90
49717;DHT22;35609;53.166;7.610;2023-03-14T04:07:25;9.00;99.90
49717;DHT22;35609;53.166;7.610;2023-03-14T04:09:51;9.10;99.90
49717;DHT22;35609;53.166;7.610;2023-03-14T04:12:17;9.00;99.90
49717;DHT22;35609;53.166;7.610;2023-03-14T04:14:42;9.10;99.90
49717;DHT22;35609;53.166;7.610;2023-03-14T04:17:08;9.20;99.90
49717;DHT22;35609;53.166;7.610;2023-03-14T04:19:34;9.00;99.90
49717;DHT22;35609;53.166;7.610;2023-03-14T04:21:59;9.10;99.90
49717;DHT22;35609;53.166;7.610;2023-03-14T04:24:25;9.00;99.90
49717;DHT22;35609;53.166;7.610;2023-03-14T04:26:50;9.00;99.90
49717;DHT22;35609;53.166;7.610;2023-03-14T04:29:16;9.10;99.90
49717;DHT22;35609;53.166;7.610;2023-03-14T04:31:42;9.00;99.90
49717;DHT22;35609;53.166;7.610;2023-03-14T04:34:08;8.90;99.90
49717;DHT22;35609;53.166;7.610;2023-03-14T04:36:33;8.90;99.90
49717;DHT22;35609;53.166;7.610;2023-03-14T04:38:59;9.00;99.90
49717;DHT22;35609;53.166;7.610;2023-03-14T04:41:25;8.90;99.90
49717;DHT22;35609;53.166;7.610;2023-03-14T04:43:51;8.90;99.90
49717;DHT22;35609;53.166;7.610;2023-03-14T04:46:16;8.90;99.90
49717;DHT22;35609;53.166;7.610;2023-03-14T04:48:42;8.90;99.90
49717;DHT22;35609;53.166;7.610;2023-03-14T04:51:08;8.80;99.90
49717;DHT22;35609;53.166;7.610;2023-03-14T04:53:33;8.90;99.90
49717;DHT22;35609;53.166;7.610;2023-03-14T04:56:00;8.90;99.90
49717;DHT22;35609;53.166;7.610;2023-03-14T04:58:25;8.80;99.90
49717;DHT22;35609;53.166;7.610;2023-03-14T05:00:51;9.00;99.90
49717;DHT22;35609;53.166;7.610;2023-03-14T05:03:18;8.90;99.90
49717;DHT22;35609;53.166;7.610;2023-03-14T05:05:44;8.80;99.90
49717;DHT22;35609;53.166;7.610;2023-03-14T05:08:10;8.90;99.90
49717;DHT22;35609;53.166;7.610;2023-03-14T05:10:36;8.80;99.90
49717;DHT22;35609;53.166;7.610;2023-03-14T05:13:02;8.90;99.90
49717;DHT22;35609;53.166;7.610;2023-03-14T05:15:28;8.70;99.90
49717;DHT22;35609;53.166;7.610;2023-03-14T05:17:53;8.70;99.90
49717;DHT22;35609;53.166;7.610;2023-03-14T05:20:20;8.70;99.90
49717;DHT22;35609;53.166;7.610;2023-03-14T05:22:46;8.70;99.90
49717;DHT22;35609;53.166;7.610;2023-03-14T05:25:12;8.70;99.90
49717;DHT22;35609;53.166;7.610;2023-03-14T05:27:37;8.70;99.90
49717;DHT22;35609;53.166;7.610;2023-03-14T05:30:04;8.70;99.90
49717;DHT22;35609;53.166;7.610;2023-03-14T05:32:31;8.80;99.90
49717;DHT22;35609;53.166;7.610;2023-03-14T05:34:56;8.70;99.90
49717;DHT22;35609;53.166;7.610;2023-03-14T05:37:25;8.70;99.90
49717;DHT22;35609;53.166;7.610;2023-03-14T05:39:51;8.70;99.90
49717;DHT22;35609;53.166;7.610;2023-03-14T05:42:17;8.60;99.90
49717;DHT22;35609;53.166;7.610;2023-03-14T05:44:43;8.60;99.90
49717;DHT22;35609;53.166;7.610;2023-03-14T05:47:09;8.50;99.90
49717;DHT22;35609;53.166;7.610;2023-03-14T05:49:34;8.60;99.90
49717;DHT22;35609;53.166;7.610;2023-03-14T05:52:00;8.50;99.90
49717;DHT22;35609;53.166;7.610;2023-03-14T05:54:26;8.50;99.90
49717;DHT22;35609;53.166;7.610;2023-03-14T05:56:51;8.40;99.90
49717;DHT22;35609;53.166;7.610;2023-03-14T05:59:17;8.50;99.90
49717;DHT22;35609;53.166;7.610;2023-03-14T06:01:43;8.40;99.90
49717;DHT22;35609;53.166;7.610;2023-03-14T06:04:09;8.60;99.90
49717;DHT22;35609;53.166;7.610;2023-03-14T06:06:34;8.40;99.90
49717;DHT22;35609;53.166;7.610;2023-03-14T06:09:01;8.60;99.90
49717;DHT22;35609;53.166;7.610;2023-03-14T06:11:26;8.50;99.90
49717;DHT22;35609;53.166;7.610;2023-03-14T06:13:52;8.40;99.90
49717;DHT22;35609;53.166;7.610;2023-03-14T06:16:18;8.50;99.90
49717;DHT22;35609;53.166;7.610;2023-03-14T06:18:43;8.50;99.90
49717;DHT22;35609;53.166;7.610;2023-03-14T06:21:11;8.50;99.90
49717;DHT22;35609;53.166;7.610;2023-03-14T06:23:37;8.80;99.90
49717;DHT22;35609;53.166;7.610;2023-03-14T06:26:04;8.80;99.90
49717;DHT22;35609;53.166;7.610;2023-03-14T06:28:30;8.70;99.90
49717;DHT22;35609;53.166;7.610;2023-03-14T06:30:55;8.80;99.90
49717;DHT22;35609;53.166;7.610;2023-03-14T06:33:21;8.80;99.90
49717;DHT22;35609;53.166;7.610;2023-03-14T06:35:47;8.90;99.90
49717;DHT22;35609;53.166;7.610;2023-03-14T06:38:12;8.80;99.90
49717;DHT22;35609;53.166;7.610;2023-03-14T06:40:38;8.80;99.90
49717;DHT22;35609;53.166;7.610;2023-03-14T06:43:06;8.70;99.90
49717;DHT22;35609;53.166;7.610;2023-03-14T06:45:32;8.80;99.90
49717;DHT22;35609;53.166;7.610;2023-03-14T06:47:57;8.60;99.90
49717;DHT22;35609;53.166;7.610;2023-03-14T06:50:23;8.80;99.90
49717;DHT22;35609;53.166;7.610;2023-03-14T06:52:49;8.80;99.90
49717;DHT22;35609;53.166;7.610;2023-03-14T06:55:15;8.70;99.90
49717;DHT22;35609;53.166;7.610;2023-03-14T06:57:41;8.70;99.90
49717;DHT22;35609;53.166;7.610;2023-03-14T07:00:07;8.70;99.90
49717;DHT22;35609;53.166;7.610;2023-03-14T07:02:33;8.70;99.90
49717;DHT22;35609;53.166;7.610;2023-03-14T07:04:59;8.80;99.90
49717;DHT22;35609;53.166;7.610;2023-03-14T07:07:26;8.60;99.90
49717;DHT22;35609;53.166;7.610;2023-03-14T07:09:52;8.60;99.90
49717;DHT22;35609;53.166;7.610;2023-03-14T07:12:17;8.70;99.90
49717;DHT22;35609;53.166;7.610;2023-03-14T07:14:43;8.60;99.90
49717;DHT22;35609;53.166;7.610;2023-03-14T07:17:09;8.60;99.90
49717;DHT22;35609;53.166;7.610;2023-03-14T07:19:34;8.70;99.90
49717;DHT22;35609;53.166;7.610;2023-03-14T07:22:00;8.60;99.90
49717;DHT22;35609;53.166;7.610;2023-03-14T07:24:26;8.80;99.90
49717;DHT22;35609;53.166;7.610;2023-03-14T07:26:52;8.60;99.90
49717;DHT22;35609;53.166;7.610;2023-03-14T07:29:17;8.60;99.90
49717;DHT22;35609;53.166;7.610;2023-03-14T07:31:43;8.80;99.90
49717;DHT22;35609;53.166;7.610;2023-03-14T07:34:09;8.60;99.90
49717;DHT22;35609;53.166;7.610;2023-03-14T07:36:34;8.70;99.90
49717;DHT22;35609;53.166;7.610;2023-03-14T07:39:00;8.60;99.90
49717;DHT22;35609;53.166;7.610;2023-03-14T07:41:26;8.60;99.90
49717;DHT22;35609;53.166;7.610;2023-03-14T07:43:51;8.60;99.90
49717;DHT22;35609;53.166;7.610;2023-03-14T07:46:17;8.60;99.90
49717;DHT22;35609;53.166;7.610;2023-03-14T07:48:43;8.60;99.90
49717;DHT22;35609;53.166;7.610;2023-03-14T07:51:08;8.70;99.90
49717;DHT22;35609;53.166;7.610;2023-03-14T07:53:34;8.20;99.90
49717;DHT22;35609;53.166;7.610;2023-03-14T07:56:00;7.40;99.90
49717;DHT22;35609;53.166;7.610;2023-03-14T07:58:25;7.00;99.90
49717;DHT22;35609;53.166;7.610;2023-03-14T08:00:52;6.70;99.90
49717;DHT22;35609;53.166;7.610;2023-03-14T08:03:18;6.60;99.90
49717;DHT22;35609;53.166;7.610;2023-03-14T08:05:44;6.40;99.90
49717;DHT22;35609;53.166;7.610;2023-03-14T08:08:12;6.30;99.90
49717;DHT22;35609;53.166;7.610;2023-03-14T08:10:37;6.20;99.90
49717;DHT22;35609;53.166;7.610;2023-03-14T08:13:03;6.00;99.90
49717;DHT22;35609;53.166;7.610;2023-03-14T08:15:29;5.60;99.90
49717;DHT22;35609;53.166;7.610;2023-03-14T08:17:56;5.50;99.90
49717;DHT22;35609;53.166;7.610;2023-03-14T08:20:24;5.50;99.90
49717;DHT22;35609;53.166;7.610;2023-03-14T08:22:50;5.30;99.90
49717;DHT22;35609;53.166;7.610;2023-03-14T08:25:16;5.00;99.90
49717;DHT22;35609;53.166;7.610;2023-03-14T08:27:42;4.60;99.90
49717;DHT22;35609;53.166;7.610;2023-03-14T08:30:11;4.30;99.90
49717;DHT22;35609;53.166;7.610;2023-03-14T08:32:37;4.30;99.90
49717;DHT22;35609;53.166;7.610;2023-03-14T08:35:03;3.90;99.90
49717;DHT22;35609;53.166;7.610;2023-03-14T08:37:34;3.40;99.90
49717;DHT22;35609;53.166;7.610;2023-03-14T08:40:00;3.30;99.90
49717;DHT22;35609;53.166;7.610;2023-03-14T08:42:26;3.30;99.90
49717;DHT22;35609;53.166;7.610;2023-03-14T08:44:52;2.90;99.90
49717;DHT22;35609;53.166;7.610;2023-03-14T08:47:18;3.20;99.90
49717;DHT22;35609;53.166;7.610;2023-03-14T08:49:43;3.00;99.90
49717;DHT22;35609;53.166;7.610;2023-03-14T08:52:09;3.00;99.90
49717;DHT22;35609;53.166;7.610;2023-03-14T08:54:35;3.00;99.90
49717;DHT22;35609;53.166;7.610;2023-03-14T08:57:00;3.10;99.90
49717;DHT22;35609;53.166;7.610;2023-03-14T08:59:26;2.90;99.90
49717;DHT22;35609;53.166;7.610;2023-03-14T09:01:52;2.80;99.90
49717;DHT22;35609;53.166;7.610;2023-03-14T09:04:17;2.70;99.90
49717;DHT22;35609;53.166;7.610;2023-03-14T09:06:43;3.00;99.90
49717;DHT22;35609;53.166;7.610;2023-03-14T09:09:09;3.10;99.90
49717;DHT22;35609;53.166;7.610;2023-03-14T09:11:34;2.80;99.90
49717;DHT22;35609;53.166;7.610;2023-03-14T09:14:00;3.00;99.90
49717;DHT22;35609;53.166;7.610;2023-03-14T09:16:26;2.90;99.90
49717;DHT22;35609;53.166;7.610;2023-03-14T09:18:52;3.00;99.90
49717;DHT22;35609;53.166;7.610;2023-03-14T09:21:22;3.20;99.90
49717;DHT22;35609;53.166;7.610;2023-03-14T09:23:48;3.30;99.90
49717;DHT22;35609;53.166;7.610;2023-03-14T09:26:14;3.20;99.90
49717;DHT22;35609;53.166;7.610;2023-03-14T09:28:39;3.40;99.90
49717;DHT22;35609;53.166;7.610;2023-03-14T09:31:15;3.10;99.90
49717;DHT22;35609;53.166;7.610;2023-03-14T09:33:40;3.30;99.90
49717;DHT22;35609;53.166;7.610;2023-03-14T09:36:07;3.40;99.90
49717;DHT22;35609;53.166;7.610;2023-03-14T09:38:33;3.50;99.90
49717;DHT22;35609;53.166;7.610;2023-03-14T09:41:01;3.60;99.90
49717;DHT22;35609;53.166;7.610;2023-03-14T09:43:33;3.60;99.90
49717;DHT22;35609;53.166;7.610;2023-03-14T09:46:01;3.80;99.90
49717;DHT22;35609;53.166;7.610;2023-03-14T09:48:31;4.00;99.90
49717;DHT22;35609;53.166;7.610;2023-03-14T09:50:59;4.00;99.90
49717;DHT22;35609;53.166;7.610;2023-03-14T09:53:44;4.00;99.90
49717;DHT22;35609;53.166;7.610;2023-03-14T09:56:17;4.30;99.90
49717;DHT22;35609;53.166;7.610;2023-03-14T09:58:56;4.10;99.90
49717;DHT22;35609;53.166;7.610;2023-03-14T10:01:33;4.30;99.90
49717;DHT22;35609;53.166;7.610;2023-03-14T10:04:14;4.50;99.90
49717;DHT22;35609;53.166;7.610;2023-03-14T10:06:41;4.60;99.90
49717;DHT22;35609;53.166;7.610;2023-03-14T10:09:30;4.60;99.90
49717;DHT22;35609;53.166;7.610;2023-03-14T10:11:57;4.80;99.90
49717;DHT22;35609;53.166;7.610;2023-03-14T10:14:36;4.80;99.90
49717;DHT22;35609;53.166;7.610;2023-03-14T10:17:08;5.10;99.90
49717;DHT22;35609;53.166;7.610;2023-03-14T10:19:35;5.00;99.90
49717;DHT22;35609;53.166;7.610;2023-03-14T10:22:03;5.40;99.90
49717;DHT22;35609;53.166;7.610;2023-03-14T10:24:34;5.30;99.90
49717;DHT22;35609;53.166;7.610;2023-03-14T10:27:04;5.50;99.90
49717;DHT22;35609;53.166;7.610;2023-03-14T10:29:32;5.50;99.90
49717;DHT22;35609;53.166;7.610;2023-03-14T10:32:01;5.70;99.90
49717;DHT22;35609;53.166;7.610;2023-03-14T10:34:29;5.70;99.90
49717;DHT22;35609;53.166;7.610;2023-03-14T10:39:46;5.60;99.90
49717;DHT22;35609;53.166;7.610;2023-03-14T10:44:54;5.40;99.90
49717;DHT22;35609;53.166;7.610;2023-03-14T10:47:23;5.30;99.90
49717;DHT22;35609;53.166;7.610;2023-03-14T10:49:49;5.30;99.90
49717;DHT22;35609;53.166;7.610;2023-03-14T10:54:59;5.30;99.90
49717;DHT22;35609;53.166;7.610;2023-03-14T10:57:25;5.00;99.90
49717;DHT22;35609;53.166;7.610;2023-03-14T10:59:53;4.80;99.90
49717;DHT22;35609;53.166;7.610;2023-03-14T11:02:47;4.90;99.90
49717;DHT22;35609;53.166;7.610;2023-03-14T11:06:25;5.00;99.90
49717;DHT22;35609;53.166;7.610;2023-03-14T11:08:48;5.10;99.90
49717;DHT22;35609;53.166;7.610;2023-03-14T11:11:20;5.30;99.90
49717;DHT22;35609;53.166;7.610;2023-03-14T11:19:26;5.70;99.90
49717;DHT22;35609;53.166;7.610;2023-03-14T11:30:34;5.90;99.90
49717;DHT22;35609;53.166;7.610;2023-03-14T11:38:32;5.60;99.90
49717;DHT22;35609;53.166;7.610;2023-03-14T11:41:00;5.60;99.90
49717;DHT22;35609;53.166;7.610;2023-03-14T11:43:32;5.80;99.90
49717;DHT22;35609;53.166;7.610;2023-03-14T11:49:08;6.30;99.90
49717;DHT22;35609;53.166;7.610;2023-03-14T11:51:39;6.00;99.90
49717;DHT22;35609;53.166;7.610;2023-03-14T11:54:31;5.90;99.90
49717;DHT22;35609;53.166;7.610;2023-03-14T11:57:01;5.90;99.90
49717;DHT22;35609;53.166;7.610;2023-03-14T11:59:33;6.30;99.90
49717;DHT22;35609;53.166;7.610;2023-03-14T12:02:17;6.60;99.90
49717;DHT22;35609;53.166;7.610;2023-03-14T12:07:29;7.60;99.90
49717;DHT22;35609;53.166;7.610;2023-03-14T12:09:57;7.70;99.90
49717;DHT22;35609;53.166;7.610;2023-03-14T12:12:25;7.30;99.90
49717;DHT22;35609;53.166;7.610;2023-03-14T12:15:04;6.90;99.90
49717;DHT22;35609;53.166;7.610;2023-03-14T12:17:39;6.40;99.90
49717;DHT22;35609;53.166;7.610;2023-03-14T12:20:18;6.30;99.90
49717;DHT22;35609;53.166;7.610;2023-03-14T12:25:16;6.10;99.90
49717;DHT22;35609;53.166;7.610;2023-03-14T12:28:02;6.10;99.90
49717;DHT22;35609;53.166;7.610;2023-03-14T12:30:37;6.20;99.90
49717;DHT22;35609;53.166;7.610;2023-03-14T12:38:09;6.40;99.90
49717;DHT22;35609;53.166;7.610;2023-03-14T12:40:39;6.50;99.90
49717;DHT22;35609;53.166;7.610;2023-03-14T12:43:25;6.70;99.90
49717;DHT22;35609;53.166;7.610;2023-03-14T12:46:19;6.70;99.90
49717;DHT22;35609;53.166;7.610;2023-03-14T12:48:47;6.70;99.90
49717;DHT22;35609;53.166;7.610;2023-03-14T12:51:18;6.40;99.90
49717;DHT22;35609;53.166;7.610;2023-03-14T12:59:30;6.10;99.90
49717;DHT22;35609;53.166;7.610;2023-03-14T13:04:53;5.90;99.90
49717;DHT22;35609;53.166;7.610;2023-03-14T13:07:38;5.80;99.90
49717;DHT22;35609;53.166;7.610;2023-03-14T13:10:23;5.80;99.90
49717;DHT22;35609;53.166;7.610;2023-03-14T13:13:17;5.90;99.90
49717;DHT22;35609;53.166;7.610;2023-03-14T13:15:46;5.90;99.90
49717;DHT22;35609;53.166;7.610;2023-03-14T13:18:16;6.30;99.90
49717;DHT22;35609;53.166;7.610;2023-03-14T13:20:46;6.60;99.90
49717;DHT22;35609;53.166;7.610;2023-03-14T13:23:28;6.80;99.90
49717;DHT22;35609;53.166;7.610;2023-03-14T13:25:55;6.70;99.20
49717;DHT22;35609;53.166;7.610;2023-03-14T13:28:21;7.00;99.90
49717;DHT22;35609;53.166;7.610;2023-03-14T13:30:49;7.10;97.10
49717;DHT22;35609;53.166;7.610;2023-03-14T13:33:21;7.20;96.10
49717;DHT22;35609;53.166;7.610;2023-03-14T13:35:53;7.60;98.30
49717;DHT22;35609;53.166;7.610;2023-03-14T13:38:22;7.60;98.40
49717;DHT22;35609;53.166;7.610;2023-03-14T13:40:50;7.90;98.70
49717;DHT22;35609;53.166;7.610;2023-03-14T13:43:32;7.80;98.40
49717;DHT22;35609;53.166;7.610;2023-03-14T13:48:58;7.00;98.50
49717;DHT22;35609;53.166;7.610;2023-03-14T13:51:26;6.60;99.90
49717;DHT22;35609;53.166;7.610;2023-03-14T13:53:57;6.30;99.90
49717;DHT22;35609;53.166;7.610;2023-03-14T13:56:28;6.30;99.90
49717;DHT22;35609;53.166;7.610;2023-03-14T13:58:54;6.20;99.90
49717;DHT22;35609;53.166;7.610;2023-03-14T14:03:51;6.50;99.90
49717;DHT22;35609;53.166;7.610;2023-03-14T14:06:38;6.80;99.40
49717;DHT22;35609;53.166;7.610;2023-03-14T14:09:13;6.70;99.50
49717;DHT22;35609;53.166;7.610;2023-03-14T14:11:56;6.50;99.90
49717;DHT22;35609;53.166;7.610;2023-03-14T14:14:45;6.20;99.90
49717;DHT22;35609;53.166;7.610;2023-03-14T14:17:17;6.00;99.90
49717;DHT22;35609;53.166;7.610;2023-03-14T14:19:46;5.80;99.90
49717;DHT22;35609;53.166;7.610;2023-03-14T14:22:12;6.00;98.60
49717;DHT22;35609;53.166;7.610;2023-03-14T14:24:38;6.30;99.70
49717;DHT22;35609;53.166;7.610;2023-03-14T14:27:20;6.30;98.80
49717;DHT22;35609;53.166;7.610;2023-03-14T14:30:01;6.20;99.20
49717;DHT22;35609;53.166;7.610;2023-03-14T14:32:35;6.00;98.90
49717;DHT22;35609;53.166;7.610;2023-03-14T14:35:01;5.90;99.90
49717;DHT22;35609;53.166;7.610;2023-03-14T14:37:48;5.80;99.90
49717;DHT22;35609;53.166;7.610;2023-03-14T14:42:40;5.90;99.90
49717;DHT22;35609;53.166;7.610;2023-03-14T14:45:24;6.00;99.90
49717;DHT22;35609;53.166;7.610;2023-03-14T14:47:53;5.90;99.90
49717;DHT22;35609;53.166;7.610;2023-03-14T14:50:29;5.60;98.90
49717;DHT22;35609;53.166;7.610;2023-03-14T14:53:00;5.70;98.60
49717;DHT22;35609;53.166;7.610;2023-03-14T14:55:38;6.00;98.60
49717;DHT22;35609;53.166;7.610;2023-03-14T14:58:33;5.70;97.40
49717;DHT22;35609;53.166;7.610;2023-03-14T15:01:05;5.60;98.10
49717;DHT22;35609;53.166;7.610;2023-03-14T15:03:34;5.80;97.30
49717;DHT22;35609;53.166;7.610;2023-03-14T15:06:01;5.80;98.70
49717;DHT22;35609;53.166;7.610;2023-03-14T15:08:28;6.00;99.20
49717;DHT22;35609;53.166;7.610;2023-03-14T15:10:54;6.30;99.10
49717;DHT22;35609;53.166;7.610;2023-03-14T15:13:20;6.40;99.90
49717;DHT22;35609;53.166;7.610;2023-03-14T15:15:46;6.40;99.80
49717;DHT22;35609;53.166;7.610;2023-03-14T15:18:16;6.40;99.90
49717;DHT22;35609;53.166;7.610;2023-03-14T15:20:46;6.70;99.90
49717;DHT22;35609;53.166;7.610;2023-03-14T15:23:16;6.80;99.90
49717;DHT22;35609;53.166;7.610;2023-03-14T15:25:42;6.60;99.90
49717;DHT22;35609;53.166;7.610;2023-03-14T15:28:21;6.30;99.90
49717;DHT22;35609;53.166;7.610;2023-03-14T15:30:49;6.00;99.90
49717;DHT22;35609;53.166;7.610;2023-03-14T15:33:16;5.80;99.90
49717;DHT22;35609;53.166;7.610;2023-03-14T15:35:42;5.70;99.90
49717;DHT22;35609;53.166;7.610;2023-03-14T15:38:10;5.90;99.90
49717;DHT22;35609;53.166;7.610;2023-03-14T15:40:37;6.20;99.90
49717;DHT22;35609;53.166;7.610;2023-03-14T15:43:06;6.40;99.90
49717;DHT22;35609;53.166;7.610;2023-03-14T15:45:38;6.30;99.90
49717;DHT22;35609;53.166;7.610;2023-03-14T15:48:06;6.60;99.90
49717;DHT22;35609;53.166;7.610;2023-03-14T15:50:32;6.50;99.90
49717;DHT22;35609;53.166;7.610;2023-03-14T15:52:57;6.50;99.90
49717;DHT22;35609;53.166;7.610;2023-03-14T15:55:23;6.40;99.90
49717;DHT22;35609;53.166;7.610;2023-03-14T15:57:50;6.30;99.90
49717;DHT22;35609;53.166;7.610;2023-03-14T16:00:19;6.20;99.90
49717;DHT22;35609;53.166;7.610;2023-03-14T16:02:47;6.00;99.90
49717;DHT22;35609;53.166;7.610;2023-03-14T16:05:12;5.60;99.90
49717;DHT22;35609;53.166;7.610;2023-03-14T16:07:38;5.40;99.90
49717;DHT22;35609;53.166;7.610;2023-03-14T16:10:05;5.30;99.90
49717;DHT22;35609;53.166;7.610;2023-03-14T16:12:32;5.40;99.90
49717;DHT22;35609;53.166;7.610;2023-03-14T16:14:58;5.60;99.90
49717;DHT22;35609;53.166;7.610;2023-03-14T16:17:24;5.70;99.90
49717;DHT22;35609;53.166;7.610;2023-03-14T16:19:50;5.60;99.90
49717;DHT22;35609;53.166;7.610;2023-03-14T16:22:16;5.40;99.90
49717;DHT22;35609;53.166;7.610;2023-03-14T16:24:41;5.20;99.90
49717;DHT22;35609;53.166;7.610;2023-03-14T16:27:07;5.20;99.90
49717;DHT22;35609;53.166;7.610;2023-03-14T16:29:34;5.10;99.90
49717;DHT22;35609;53.166;7.610;2023-03-14T16:31:59;4.90;99.90
49717;DHT22;35609;53.166;7.610;2023-03-14T16:34:28;4.30;99.90
49717;DHT22;35609;53.166;7.610;2023-03-14T16:36:53;3.80;99.90
49717;DHT22;35609;53.166;7.610;2023-03-14T16:39:20;3.40;99.90
49717;DHT22;35609;53.166;7.610;2023-03-14T16:41:46;3.20;99.90
49717;DHT22;35609;53.166;7.610;2023-03-14T16:44:12;3.20;99.90
49717;DHT22;35609;53.166;7.610;2023-03-14T16:46:38;3.00;99.90
49717;DHT22;35609;53.166;7.610;2023-03-14T16:49:04;3.10;99.90
49717;DHT22;35609;53.166;7.610;2023-03-14T16:51:31;3.10;99.90
49717;DHT22;35609;53.166;7.610;2023-03-14T16:53:56;3.20;99.90